createdAt,value
2022-12-22T00:00:01.053Z,10.19
2022-12-22T00:01:01.901Z,10.21
2022-12-22T00:02:01.499Z,10.19
2022-12-22T00:03:02.145Z,10.18
2022-12-22T00:04:01.236Z,10.18
2022-12-22T00:05:01.025Z,10.21
2022-12-22T00:06:01.013Z,10.21
2022-12-22T00:07:00.978Z,10.18
2022-12-22T00:08:00.968Z,10.19
2022-12-22T00:09:05.510Z,10.18
2022-12-22T00:10:01.947Z,10.18
2022-12-22T00:11:00.906Z,10.17
2022-12-22T00:12:00.899Z,10.15
2022-12-22T00:13:00.889Z,10.15
2022-12-22T00:14:00.863Z,10.15
2022-12-22T00:15:00.866Z,10.12
2022-12-22T00:16:00.864Z,10.15
2022-12-22T00:17:00.891Z,10.15
2022-12-22T00:18:00.804Z,10.15
2022-12-22T00:19:00.799Z,10.15
2022-12-22T00:20:00.816Z,10.17
2022-12-22T00:21:00.801Z,10.17
2022-12-22T00:22:01.004Z,10.17
2022-12-22T00:23:00.751Z,10.18
2022-12-22T00:24:00.740Z,10.19
2022-12-22T00:25:00.980Z,10.19
2022-12-22T00:26:00.725Z,10.19
2022-12-22T00:27:00.692Z,10.21
2022-12-22T00:28:00.701Z,10.21
2022-12-22T00:29:00.669Z,10.18
2022-12-22T00:30:01.371Z,10.19
2022-12-22T00:31:00.961Z,10.18
2022-12-22T00:32:00.907Z,10.19
2022-12-22T00:33:00.650Z,10.21
2022-12-22T00:34:00.650Z,10.21
2022-12-22T00:35:00.638Z,10.21
2022-12-22T00:36:00.862Z,10.21
2022-12-22T00:37:00.937Z,10.22
2022-12-22T00:38:00.596Z,10.22
2022-12-22T00:39:00.592Z,10.22
2022-12-22T00:40:00.561Z,10.22
2022-12-22T00:41:00.535Z,10.24
2022-12-22T00:42:00.582Z,10.22
2022-12-22T00:43:00.542Z,10.22
2022-12-22T00:44:00.848Z,10.22
2022-12-22T00:45:00.542Z,10.22
2022-12-22T00:46:00.552Z,10.22
2022-12-22T00:47:00.477Z,10.24
2022-12-22T00:48:00.713Z,10.25
2022-12-22T00:49:00.495Z,10.26
2022-12-22T00:50:00.443Z,10.26
2022-12-22T00:51:00.444Z,10.28
2022-12-22T00:52:00.443Z,10.28
2022-12-22T00:53:00.387Z,10.32
2022-12-22T00:54:00.626Z,10.30
2022-12-22T00:55:00.377Z,10.28
2022-12-22T00:56:00.403Z,10.32
2022-12-22T00:57:00.340Z,10.32
2022-12-22T00:58:00.384Z,10.33
2022-12-22T00:59:00.358Z,10.32
2022-12-22T01:00:00.944Z,10.33
2022-12-22T01:01:00.380Z,10.34
2022-12-22T01:02:00.530Z,10.33
2022-12-22T01:03:00.389Z,10.33
2022-12-22T01:04:00.545Z,10.36
2022-12-22T01:05:00.298Z,10.33
2022-12-22T01:06:00.252Z,10.33
2022-12-22T01:07:00.247Z,10.34
2022-12-22T01:08:00.240Z,10.34
2022-12-22T01:09:00.228Z,10.34
2022-12-22T01:10:00.820Z,10.33
2022-12-22T01:11:00.217Z,10.33
2022-12-22T01:12:00.210Z,10.33
2022-12-22T01:13:00.157Z,10.36
2022-12-22T01:14:00.211Z,10.34
2022-12-22T01:15:00.162Z,10.34
2022-12-22T01:16:00.212Z,10.34
2022-12-22T01:17:00.149Z,10.33
2022-12-22T01:18:00.131Z,10.34
2022-12-22T01:19:00.118Z,10.36
2022-12-22T01:20:00.120Z,10.36
2022-12-22T01:21:00.086Z,10.34
2022-12-22T01:22:00.113Z,10.34
2022-12-22T01:23:00.122Z,10.32
2022-12-22T01:24:00.054Z,10.32
2022-12-22T01:25:00.228Z,10.33
2022-12-22T01:26:00.052Z,10.30
2022-12-22T01:27:00.024Z,10.30
2022-12-22T01:28:00.248Z,10.32
2022-12-22T01:29:00.003Z,10.32
2022-12-22T01:29:59.999Z,10.28
2022-12-22T01:31:00.059Z,10.28
2022-12-22T01:31:59.952Z,10.26
2022-12-22T01:32:59.953Z,10.28
2022-12-22T01:33:59.953Z,10.26
2022-12-22T01:34:59.907Z,10.26
2022-12-22T01:36:00.141Z,10.32
2022-12-22T01:36:59.903Z,10.30
2022-12-22T01:37:59.928Z,10.30
2022-12-22T01:38:59.882Z,10.32
2022-12-22T01:39:59.857Z,10.32
2022-12-22T01:41:00.090Z,10.32
2022-12-22T01:41:59.841Z,10.32
2022-12-22T01:42:59.835Z,10.32
2022-12-22T01:43:59.844Z,10.32
2022-12-22T01:44:59.815Z,10.32
2022-12-22T01:45:59.831Z,10.33
2022-12-22T01:46:59.997Z,10.32
2022-12-22T01:48:00.023Z,10.32
2022-12-22T01:48:59.767Z,10.32
2022-12-22T01:49:59.755Z,10.33
2022-12-22T01:50:59.747Z,10.34
2022-12-22T01:52:03.080Z,10.33
2022-12-22T01:52:59.720Z,10.33
2022-12-22T01:53:59.917Z,10.33
2022-12-22T01:54:59.896Z,10.34
2022-12-22T01:55:59.708Z,10.34
2022-12-22T01:56:59.686Z,10.34
2022-12-22T01:57:59.851Z,10.34
2022-12-22T01:58:59.631Z,10.36
2022-12-22T01:59:59.727Z,10.33
2022-12-22T02:00:59.632Z,10.34
2022-12-22T02:01:59.940Z,10.33
2022-12-22T02:02:59.809Z,10.34
2022-12-22T02:03:59.693Z,10.34
2022-12-22T02:04:59.595Z,10.36
2022-12-22T02:05:59.938Z,10.34
2022-12-22T02:07:00.482Z,10.34
2022-12-22T02:07:59.544Z,10.33
2022-12-22T02:08:59.869Z,10.33
2022-12-22T02:09:59.547Z,10.33
2022-12-22T02:10:59.528Z,10.34
2022-12-22T02:11:59.498Z,10.36
2022-12-22T02:12:59.692Z,10.34
2022-12-22T02:13:59.465Z,10.34
2022-12-22T02:14:59.692Z,10.34
2022-12-22T02:15:59.521Z,10.36
2022-12-22T02:16:59.423Z,10.36
2022-12-22T02:17:59.470Z,10.36
2022-12-22T02:18:59.449Z,10.36
2022-12-22T02:19:59.405Z,10.36
2022-12-22T02:20:59.390Z,10.36
2022-12-22T02:21:59.375Z,10.36
2022-12-22T02:22:59.372Z,10.34
2022-12-22T02:23:59.783Z,10.36
2022-12-22T02:24:59.352Z,10.39
2022-12-22T02:25:59.364Z,10.36
2022-12-22T02:26:59.352Z,10.36
2022-12-22T02:27:59.334Z,10.37
2022-12-22T02:28:59.296Z,10.36
2022-12-22T02:29:59.293Z,10.34
2022-12-22T02:30:59.370Z,10.36
2022-12-22T02:31:59.256Z,10.36
2022-12-22T02:33:03.816Z,10.34
2022-12-22T02:34:00.239Z,10.34
2022-12-22T02:34:59.225Z,10.36
2022-12-22T02:35:59.226Z,10.34
2022-12-22T02:36:59.221Z,10.36
2022-12-22T02:37:59.409Z,10.37
2022-12-22T02:38:59.438Z,10.36
2022-12-22T02:39:59.196Z,10.37
2022-12-22T02:40:59.167Z,10.37
2022-12-22T02:41:59.174Z,10.37
2022-12-22T02:42:59.526Z,10.37
2022-12-22T02:43:59.148Z,10.37
2022-12-22T02:44:59.127Z,10.37
2022-12-22T02:45:59.125Z,10.37
2022-12-22T02:46:59.405Z,10.39
2022-12-22T02:47:59.112Z,10.37
2022-12-22T02:48:59.399Z,10.37
2022-12-22T02:49:59.086Z,10.37
2022-12-22T02:50:59.058Z,10.39
2022-12-22T02:51:59.062Z,10.37
2022-12-22T02:52:59.020Z,10.39
2022-12-22T02:53:59.408Z,10.42
2022-12-22T02:54:58.996Z,10.42
2022-12-22T02:55:59.013Z,10.42
2022-12-22T02:56:58.997Z,10.40
2022-12-22T02:57:59.208Z,10.40
2022-12-22T02:58:58.971Z,10.40
2022-12-22T02:59:58.972Z,10.40
2022-12-22T03:00:58.936Z,10.42
2022-12-22T03:01:59.176Z,10.39
2022-12-22T03:02:59.043Z,10.40
2022-12-22T03:03:59.423Z,10.40
2022-12-22T03:04:58.903Z,10.40
2022-12-22T03:05:58.883Z,10.40
2022-12-22T03:06:59.574Z,10.42
2022-12-22T03:08:03.056Z,10.42
2022-12-22T03:09:00.146Z,10.43
2022-12-22T03:09:58.824Z,10.43
2022-12-22T03:10:58.830Z,10.44
2022-12-22T03:11:58.840Z,10.43
2022-12-22T03:12:58.775Z,10.44
2022-12-22T03:13:58.775Z,10.44
2022-12-22T03:15:00.989Z,10.44
2022-12-22T03:15:58.808Z,10.44
2022-12-22T03:16:58.742Z,10.46
2022-12-22T03:17:58.735Z,10.46
2022-12-22T03:18:58.709Z,10.46
2022-12-22T03:19:58.746Z,10.47
2022-12-22T03:20:58.929Z,10.47
2022-12-22T03:21:58.699Z,10.47
2022-12-22T03:22:58.677Z,10.51
2022-12-22T03:23:58.703Z,10.51
2022-12-22T03:24:58.881Z,10.52
2022-12-22T03:25:58.672Z,10.51
2022-12-22T03:26:58.618Z,10.47
2022-12-22T03:27:58.621Z,10.47
2022-12-22T03:28:58.626Z,10.47
2022-12-22T03:29:58.641Z,10.47
2022-12-22T03:30:58.903Z,10.47
2022-12-22T03:31:58.710Z,10.47
2022-12-22T03:32:58.565Z,10.47
2022-12-22T03:33:58.549Z,10.46
2022-12-22T03:34:58.529Z,10.47
2022-12-22T03:35:58.547Z,10.47
2022-12-22T03:36:58.729Z,10.51
2022-12-22T03:37:58.526Z,10.51
2022-12-22T03:38:58.706Z,10.52
2022-12-22T03:39:58.512Z,10.53
2022-12-22T03:40:58.466Z,10.53
2022-12-22T03:41:58.536Z,10.53
2022-12-22T03:42:58.658Z,10.53
2022-12-22T03:43:58.468Z,10.53
2022-12-22T03:44:59.005Z,10.53
2022-12-22T03:45:58.412Z,10.53
2022-12-22T03:46:58.740Z,10.52
2022-12-22T03:47:58.406Z,10.53
2022-12-22T03:48:58.363Z,10.55
2022-12-22T03:49:58.368Z,10.52
2022-12-22T03:50:58.385Z,10.52
2022-12-22T03:51:58.609Z,10.53
2022-12-22T03:52:58.325Z,10.55
2022-12-22T03:53:58.341Z,10.55
2022-12-22T03:54:58.332Z,10.56
2022-12-22T03:56:04.087Z,10.55
2022-12-22T03:56:59.298Z,10.56
2022-12-22T03:57:58.275Z,10.56
2022-12-22T03:58:58.255Z,10.58
2022-12-22T03:59:58.472Z,10.60
2022-12-22T04:00:58.273Z,10.59
2022-12-22T04:01:58.320Z,10.59
2022-12-22T04:02:58.533Z,10.60
2022-12-22T04:03:58.237Z,10.60
2022-12-22T04:04:58.178Z,10.59
2022-12-22T04:05:58.218Z,10.62
2022-12-22T04:06:58.157Z,10.62
2022-12-22T04:07:58.466Z,10.62
2022-12-22T04:08:58.180Z,10.62
2022-12-22T04:09:58.471Z,10.63
2022-12-22T04:10:58.122Z,10.63
2022-12-22T04:11:58.125Z,10.65
2022-12-22T04:12:58.304Z,10.66
2022-12-22T04:13:58.092Z,10.66
2022-12-22T04:14:58.092Z,10.66
2022-12-22T04:15:58.165Z,10.70
2022-12-22T04:16:58.134Z,10.65
2022-12-22T04:17:58.080Z,10.66
2022-12-22T04:18:58.302Z,10.68
2022-12-22T04:19:58.023Z,10.68
2022-12-22T04:20:58.040Z,10.66
2022-12-22T04:21:58.032Z,10.70
2022-12-22T04:22:57.974Z,10.71
2022-12-22T04:23:58.023Z,10.70
2022-12-22T04:24:57.979Z,10.70
2022-12-22T04:25:57.951Z,10.70
2022-12-22T04:26:57.944Z,10.70
2022-12-22T04:27:58.166Z,10.71
2022-12-22T04:28:58.017Z,10.73
2022-12-22T04:29:57.939Z,10.73
2022-12-22T04:30:58.082Z,10.74
2022-12-22T04:31:57.950Z,10.74
2022-12-22T04:32:57.860Z,10.73
2022-12-22T04:33:57.882Z,10.76
2022-12-22T04:34:57.885Z,10.76
2022-12-22T04:35:58.033Z,10.77
2022-12-22T04:37:07.041Z,10.76
2022-12-22T04:37:58.795Z,10.77
2022-12-22T04:38:57.802Z,10.78
2022-12-22T04:39:57.809Z,10.78
2022-12-22T04:40:57.810Z,10.77
2022-12-22T04:41:57.993Z,10.77
2022-12-22T04:42:57.791Z,10.78
2022-12-22T04:43:57.764Z,10.78
2022-12-22T04:44:57.741Z,10.80
2022-12-22T04:45:57.783Z,10.80
2022-12-22T04:46:57.732Z,10.80
2022-12-22T04:47:57.975Z,10.81
2022-12-22T04:49:00.300Z,10.80
2022-12-22T04:49:57.676Z,10.81
2022-12-22T04:50:57.696Z,10.81
2022-12-22T04:51:57.680Z,10.83
2022-12-22T04:52:58.005Z,10.83
2022-12-22T04:53:57.667Z,10.83
2022-12-22T04:54:57.616Z,10.83
2022-12-22T04:55:57.624Z,10.83
2022-12-22T04:56:57.598Z,10.86
2022-12-22T04:57:57.610Z,10.86
2022-12-22T04:58:57.957Z,10.84
2022-12-22T04:59:57.574Z,10.86
2022-12-22T05:00:57.853Z,10.86
2022-12-22T05:01:57.602Z,10.86
2022-12-22T05:02:57.643Z,10.89
2022-12-22T05:03:57.498Z,10.91
2022-12-22T05:04:57.541Z,10.91
2022-12-22T05:05:58.101Z,10.89
2022-12-22T05:06:57.477Z,10.88
2022-12-22T05:07:57.487Z,10.88
2022-12-22T05:08:57.449Z,10.89
2022-12-22T05:09:57.586Z,10.89
2022-12-22T05:10:57.571Z,10.89
2022-12-22T05:11:57.647Z,10.91
2022-12-22T05:12:57.440Z,10.91
2022-12-22T05:14:02.049Z,10.92
2022-12-22T05:14:58.382Z,10.91
2022-12-22T05:15:57.392Z,10.92
2022-12-22T05:16:57.490Z,10.94
2022-12-22T05:17:57.682Z,10.94
2022-12-22T05:18:57.369Z,10.94
2022-12-22T05:19:57.313Z,10.94
2022-12-22T05:20:57.320Z,10.91
2022-12-22T05:21:57.311Z,10.91
2022-12-22T05:22:57.302Z,10.91
2022-12-22T05:23:57.273Z,10.91
2022-12-22T05:24:57.279Z,10.88
2022-12-22T05:25:57.244Z,10.89
2022-12-22T05:26:57.471Z,10.88
2022-12-22T05:27:57.262Z,10.88
2022-12-22T05:28:57.254Z,10.89
2022-12-22T05:29:57.205Z,10.89
2022-12-22T05:30:57.317Z,10.89
2022-12-22T05:31:57.206Z,10.89
2022-12-22T05:32:57.532Z,10.88
2022-12-22T05:33:57.196Z,10.88
2022-12-22T05:34:57.511Z,10.88
2022-12-22T05:35:57.162Z,10.89
2022-12-22T05:36:57.141Z,10.88
2022-12-22T05:37:57.146Z,10.91
2022-12-22T05:38:57.146Z,10.88
2022-12-22T05:39:57.095Z,10.88
2022-12-22T05:41:03.565Z,10.88
2022-12-22T05:41:58.085Z,10.88
2022-12-22T05:42:57.095Z,10.86
2022-12-22T05:43:57.038Z,10.88
2022-12-22T05:44:57.050Z,10.88
2022-12-22T05:45:57.347Z,10.88
2022-12-22T05:46:57.033Z,10.89
2022-12-22T05:47:57.002Z,10.88
2022-12-22T05:48:57.225Z,10.88
2022-12-22T05:49:56.998Z,10.88
2022-12-22T05:50:56.983Z,10.86
2022-12-22T05:51:56.973Z,10.84
2022-12-22T05:52:56.981Z,10.86
2022-12-22T05:53:56.968Z,10.88
2022-12-22T05:54:56.943Z,10.89
2022-12-22T05:55:57.139Z,10.91
2022-12-22T05:56:56.941Z,10.88
2022-12-22T05:57:56.924Z,10.91
2022-12-22T05:58:56.909Z,10.88
2022-12-22T05:59:56.902Z,10.88
2022-12-22T06:00:56.866Z,10.86
2022-12-22T06:01:56.898Z,10.86
2022-12-22T06:02:57.215Z,10.86
2022-12-22T06:04:00.411Z,10.86
2022-12-22T06:04:56.813Z,10.86
2022-12-22T06:05:56.991Z,10.88
2022-12-22T06:06:56.806Z,10.88
2022-12-22T06:07:56.772Z,10.89
2022-12-22T06:08:56.782Z,10.89
2022-12-22T06:09:56.784Z,10.88
2022-12-22T06:10:56.748Z,10.89
2022-12-22T06:11:56.951Z,10.88
2022-12-22T06:12:56.725Z,10.89
2022-12-22T06:13:56.703Z,10.91
2022-12-22T06:14:56.745Z,10.91
2022-12-22T06:15:56.756Z,10.89
2022-12-22T06:16:56.711Z,10.89
2022-12-22T06:17:57.000Z,10.89
2022-12-22T06:18:56.693Z,10.89
2022-12-22T06:19:56.635Z,10.88
2022-12-22T06:20:56.653Z,10.89
2022-12-22T06:21:56.631Z,10.88
2022-12-22T06:22:56.636Z,10.89
2022-12-22T06:23:56.797Z,10.89
2022-12-22T06:24:56.622Z,10.88
2022-12-22T06:25:56.803Z,10.89
2022-12-22T06:26:56.561Z,10.91
2022-12-22T06:27:56.563Z,10.89
2022-12-22T06:28:56.925Z,10.89
2022-12-22T06:29:56.538Z,10.91
2022-12-22T06:30:56.665Z,10.89
2022-12-22T06:31:56.504Z,10.86
2022-12-22T06:32:56.546Z,10.86
2022-12-22T06:33:56.708Z,10.86
2022-12-22T06:34:56.470Z,10.84
2022-12-22T06:35:58.825Z,10.84
2022-12-22T06:36:56.467Z,10.86
2022-12-22T06:37:56.483Z,10.88
2022-12-22T06:38:56.449Z,10.88
2022-12-22T06:39:56.600Z,10.86
2022-12-22T06:40:56.788Z,10.89
2022-12-22T06:41:56.384Z,10.88
2022-12-22T06:42:58.559Z,10.88
2022-12-22T06:43:57.377Z,10.89
2022-12-22T06:44:56.400Z,10.88
2022-12-22T06:45:56.608Z,10.88
2022-12-22T06:46:56.403Z,10.88
2022-12-22T06:47:56.302Z,10.91
2022-12-22T06:48:56.525Z,10.94
2022-12-22T06:49:56.290Z,10.95
2022-12-22T06:50:56.317Z,10.95
2022-12-22T06:51:56.286Z,10.96
2022-12-22T06:52:56.266Z,10.96
2022-12-22T06:53:56.235Z,10.95
2022-12-22T06:54:56.905Z,10.96
2022-12-22T06:55:56.241Z,10.95
2022-12-22T06:56:56.553Z,10.98
2022-12-22T06:57:56.197Z,10.96
2022-12-22T06:58:56.563Z,10.95
2022-12-22T06:59:57.842Z,10.96
2022-12-22T07:00:56.199Z,10.95
2022-12-22T07:01:56.287Z,10.95
2022-12-22T07:02:56.380Z,10.98
2022-12-22T07:03:56.193Z,10.98
2022-12-22T07:04:56.123Z,10.99
2022-12-22T07:05:56.631Z,10.98
2022-12-22T07:06:56.097Z,10.96
2022-12-22T07:07:56.090Z,10.98
2022-12-22T07:08:56.075Z,10.98
2022-12-22T07:09:56.288Z,10.96
2022-12-22T07:10:56.055Z,10.98
2022-12-22T07:11:56.058Z,10.99
2022-12-22T07:12:56.085Z,10.99
2022-12-22T07:13:56.035Z,10.98
2022-12-22T07:14:56.026Z,10.98
2022-12-22T07:16:00.786Z,10.98
2022-12-22T07:16:57.014Z,10.99
2022-12-22T07:17:55.959Z,11.01
2022-12-22T07:18:56.328Z,10.99
2022-12-22T07:19:55.965Z,10.95
2022-12-22T07:20:55.956Z,10.94
2022-12-22T07:21:55.907Z,10.94
2022-12-22T07:22:55.976Z,10.94
2022-12-22T07:23:55.934Z,10.94
2022-12-22T07:24:56.387Z,10.94
2022-12-22T07:25:55.919Z,10.94
2022-12-22T07:26:56.184Z,10.94
2022-12-22T07:27:55.847Z,10.95
2022-12-22T07:28:55.877Z,10.96
2022-12-22T07:29:56.017Z,10.96
2022-12-22T07:30:55.848Z,10.96
2022-12-22T07:31:55.898Z,10.95
2022-12-22T07:32:55.818Z,10.95
2022-12-22T07:33:55.822Z,10.94
2022-12-22T07:35:00.073Z,10.94
2022-12-22T07:35:56.742Z,10.92
2022-12-22T07:36:55.753Z,10.89
2022-12-22T07:37:55.751Z,10.88
2022-12-22T07:38:55.752Z,10.84
2022-12-22T07:39:55.870Z,10.83
2022-12-22T07:40:58.295Z,10.83
2022-12-22T07:41:56.683Z,10.83
2022-12-22T07:42:55.675Z,10.83
2022-12-22T07:43:55.872Z,10.84
2022-12-22T07:44:55.689Z,10.83
2022-12-22T07:45:55.644Z,10.83
2022-12-22T07:46:55.714Z,10.83
2022-12-22T07:47:55.642Z,10.83
2022-12-22T07:48:55.846Z,10.81
2022-12-22T07:49:55.613Z,10.83
2022-12-22T07:50:55.622Z,10.84
2022-12-22T07:51:55.593Z,10.84
2022-12-22T07:53:02.615Z,10.84
2022-12-22T07:53:55.566Z,10.83
2022-12-22T07:54:55.584Z,10.83
2022-12-22T07:55:55.518Z,10.83
2022-12-22T07:56:55.738Z,10.84
2022-12-22T07:57:55.522Z,10.84
2022-12-22T07:58:55.508Z,10.84
2022-12-22T07:59:55.507Z,10.83
2022-12-22T08:00:55.470Z,10.81
2022-12-22T08:01:55.916Z,10.80
2022-12-22T08:02:55.535Z,10.80
2022-12-22T08:03:55.530Z,10.80
2022-12-22T08:04:55.475Z,10.81
2022-12-22T08:05:55.757Z,10.80
2022-12-22T08:06:55.400Z,10.81
2022-12-22T08:07:55.410Z,10.81
2022-12-22T08:08:55.405Z,10.81
2022-12-22T08:09:55.361Z,10.81
2022-12-22T08:10:55.595Z,10.81
2022-12-22T08:11:55.376Z,10.81
2022-12-22T08:12:55.427Z,10.83
2022-12-22T08:14:01.002Z,10.81
2022-12-22T08:14:56.369Z,10.83
2022-12-22T08:15:55.331Z,10.81
2022-12-22T08:16:55.525Z,10.81
2022-12-22T08:17:55.296Z,10.80
2022-12-22T08:18:55.303Z,10.81
2022-12-22T08:19:55.269Z,10.80
2022-12-22T08:20:55.473Z,10.78
2022-12-22T08:21:55.213Z,10.78
2022-12-22T08:22:55.222Z,10.80
2022-12-22T08:23:55.195Z,10.81
2022-12-22T08:24:55.194Z,10.84
2022-12-22T08:25:55.523Z,10.84
2022-12-22T08:26:55.192Z,10.83
2022-12-22T08:27:55.168Z,10.83
2022-12-22T08:28:55.141Z,10.83
2022-12-22T08:29:55.148Z,10.83
2022-12-22T08:30:55.115Z,10.84
2022-12-22T08:31:55.532Z,10.84
2022-12-22T08:32:55.129Z,10.84
2022-12-22T08:33:55.098Z,10.84
2022-12-22T08:34:55.094Z,10.84
2022-12-22T08:35:55.102Z,10.84
2022-12-22T08:36:55.373Z,10.84
2022-12-22T08:37:55.057Z,10.84
2022-12-22T08:38:55.052Z,10.83
2022-12-22T08:39:55.027Z,10.84
2022-12-22T08:40:55.007Z,10.83
2022-12-22T08:41:55.237Z,10.81
2022-12-22T08:42:55.011Z,10.80
2022-12-22T08:43:54.980Z,10.77
2022-12-22T08:44:54.975Z,10.77
2022-12-22T08:45:54.975Z,10.74
2022-12-22T08:46:54.979Z,10.74
2022-12-22T08:47:55.176Z,10.71
2022-12-22T08:48:54.941Z,10.71
2022-12-22T08:49:54.943Z,10.71
2022-12-22T08:50:54.881Z,10.71
2022-12-22T08:51:55.257Z,10.70
2022-12-22T08:52:54.874Z,10.70
2022-12-22T08:54:10.171Z,10.70
2022-12-22T08:54:55.871Z,10.68
2022-12-22T08:55:54.881Z,10.66
2022-12-22T08:56:54.862Z,10.68
2022-12-22T08:57:56.414Z,10.66
2022-12-22T08:58:54.820Z,10.66
2022-12-22T08:59:54.822Z,10.66
2022-12-22T09:00:54.890Z,10.65
2022-12-22T09:01:54.840Z,10.62
2022-12-22T09:02:55.145Z,10.63
2022-12-22T09:03:54.779Z,10.63
2022-12-22T09:04:54.751Z,10.66
2022-12-22T09:05:54.736Z,10.70
2022-12-22T09:06:54.714Z,10.70
2022-12-22T09:07:54.940Z,10.73
2022-12-22T09:08:54.681Z,10.73
2022-12-22T09:09:54.708Z,10.73
2022-12-22T09:10:54.682Z,10.73
2022-12-22T09:11:54.684Z,10.71
2022-12-22T09:12:54.866Z,10.71
2022-12-22T09:13:54.661Z,10.74
2022-12-22T09:14:54.642Z,10.73
2022-12-22T09:15:54.650Z,10.73
2022-12-22T09:16:54.679Z,10.71
2022-12-22T09:17:54.963Z,10.70
2022-12-22T09:18:54.584Z,10.68
2022-12-22T09:19:54.594Z,10.71
2022-12-22T09:20:54.544Z,10.70
2022-12-22T09:21:54.549Z,10.71
2022-12-22T09:22:54.542Z,10.71
2022-12-22T09:23:54.641Z,10.66
2022-12-22T09:24:54.527Z,10.63
2022-12-22T09:25:54.520Z,10.62
2022-12-22T09:26:54.519Z,10.63
2022-12-22T09:27:54.489Z,10.65
2022-12-22T09:28:54.486Z,10.65
2022-12-22T09:29:54.674Z,10.65
2022-12-22T09:30:54.464Z,10.65
2022-12-22T09:31:54.707Z,10.66
2022-12-22T09:32:54.404Z,10.66
2022-12-22T09:33:54.410Z,10.63
2022-12-22T09:34:54.406Z,10.63
2022-12-22T09:35:54.386Z,10.65
2022-12-22T09:36:54.592Z,10.66
2022-12-22T09:37:54.363Z,10.70
2022-12-22T09:38:54.357Z,10.70
2022-12-22T09:39:54.394Z,10.66
2022-12-22T09:40:54.336Z,10.68
2022-12-22T09:41:54.336Z,10.70
2022-12-22T09:42:54.291Z,10.70
2022-12-22T09:43:54.287Z,10.70
2022-12-22T09:44:54.498Z,10.73
2022-12-22T09:45:54.332Z,10.77
2022-12-22T09:46:54.270Z,10.78
2022-12-22T09:47:54.267Z,10.80
2022-12-22T09:48:54.248Z,10.80
2022-12-22T09:49:54.271Z,10.80
2022-12-22T09:50:54.200Z,10.81
2022-12-22T09:51:54.224Z,10.86
2022-12-22T09:53:00.927Z,10.86
2022-12-22T09:53:54.169Z,10.86
2022-12-22T09:54:57.648Z,10.88
2022-12-22T09:55:54.563Z,10.91
2022-12-22T09:56:54.125Z,10.95
2022-12-22T09:57:54.149Z,10.98
2022-12-22T09:58:54.130Z,10.96
2022-12-22T09:59:54.104Z,10.91
2022-12-22T10:00:54.118Z,10.94
2022-12-22T10:01:54.275Z,10.94
2022-12-22T10:02:54.083Z,10.94
2022-12-22T10:04:00.044Z,10.94
2022-12-22T10:04:55.034Z,10.96
2022-12-22T10:05:54.043Z,10.99
2022-12-22T10:06:54.041Z,10.99
2022-12-22T10:07:54.006Z,11.02
2022-12-22T10:08:53.977Z,11.02
2022-12-22T10:09:54.235Z,10.99
2022-12-22T10:10:53.962Z,10.95
2022-12-22T10:11:54.025Z,10.94
2022-12-22T10:12:54.147Z,10.94
2022-12-22T10:13:53.943Z,10.92
2022-12-22T10:14:53.977Z,10.92
2022-12-22T10:15:53.945Z,10.92
2022-12-22T10:16:53.971Z,10.86
2022-12-22T10:17:54.186Z,10.83
2022-12-22T10:18:53.861Z,10.83
2022-12-22T10:19:53.899Z,10.83
2022-12-22T10:20:53.866Z,10.81
2022-12-22T10:21:53.871Z,10.80
2022-12-22T10:22:53.818Z,10.78
2022-12-22T10:23:53.821Z,10.73
2022-12-22T10:24:53.790Z,10.70
2022-12-22T10:26:26.758Z,10.71
2022-12-22T10:26:54.786Z,10.73
2022-12-22T10:27:53.802Z,10.73
2022-12-22T10:28:53.750Z,10.74
2022-12-22T10:29:53.759Z,10.70
2022-12-22T10:30:53.959Z,10.66
2022-12-22T10:31:53.787Z,10.66
2022-12-22T10:32:53.703Z,10.66
2022-12-22T10:33:53.700Z,10.71
2022-12-22T10:34:53.672Z,10.65
2022-12-22T10:35:54.175Z,10.60
2022-12-22T10:36:53.653Z,10.65
2022-12-22T10:37:53.683Z,10.63
2022-12-22T10:38:53.648Z,10.63
2022-12-22T10:39:54.068Z,10.60
2022-12-22T10:40:59.971Z,10.60
2022-12-22T10:41:54.613Z,10.59
2022-12-22T10:42:53.585Z,10.60
2022-12-22T10:43:53.784Z,10.62
2022-12-22T10:44:53.582Z,10.60
2022-12-22T10:45:53.608Z,10.62
2022-12-22T10:46:53.586Z,10.62
2022-12-22T10:47:53.564Z,10.59
2022-12-22T10:48:53.515Z,10.53
2022-12-22T10:50:28.744Z,10.52
2022-12-22T10:51:28.739Z,10.46
2022-12-22T10:52:31.814Z,10.44
2022-12-22T10:53:28.686Z,10.42
2022-12-22T10:54:28.790Z,10.43
2022-12-22T10:55:28.664Z,10.40
2022-12-22T10:56:28.680Z,10.37
2022-12-22T10:57:28.703Z,10.37
2022-12-22T10:58:28.635Z,10.39
2022-12-22T10:59:28.618Z,10.37
2022-12-22T11:00:28.623Z,10.37
2022-12-22T11:01:28.731Z,10.34
2022-12-22T11:02:28.831Z,10.33
2022-12-22T11:03:28.795Z,10.33
2022-12-22T11:04:28.555Z,10.34
2022-12-22T11:05:28.606Z,10.33
2022-12-22T11:06:28.521Z,10.33
2022-12-22T11:07:28.551Z,10.33
2022-12-22T11:08:28.526Z,10.33
2022-12-22T11:09:35.935Z,10.30
2022-12-22T11:10:29.504Z,10.25
2022-12-22T11:11:28.479Z,10.25
2022-12-22T11:12:28.770Z,10.21
2022-12-22T11:13:28.484Z,10.19
2022-12-22T11:14:28.432Z,10.21
2022-12-22T11:15:28.447Z,10.17
2022-12-22T11:16:28.469Z,10.14
2022-12-22T11:17:28.441Z,10.12
2022-12-22T11:18:28.406Z,10.10
2022-12-22T11:19:28.421Z,10.14
2022-12-22T11:20:28.395Z,10.12
2022-12-22T11:21:28.490Z,10.12
2022-12-22T11:22:28.358Z,10.14
2022-12-22T11:23:28.378Z,10.10
2022-12-22T11:24:28.340Z,10.12
2022-12-22T11:25:28.335Z,10.14
2022-12-22T11:26:28.289Z,10.12
2022-12-22T11:27:28.299Z,10.12
2022-12-22T11:28:28.326Z,10.15
2022-12-22T11:29:28.287Z,10.10
2022-12-22T11:30:28.245Z,10.09
2022-12-22T11:31:28.307Z,10.10
2022-12-22T11:32:28.264Z,10.10
2022-12-22T11:33:28.247Z,10.12
2022-12-22T11:34:28.213Z,10.15
2022-12-22T11:35:28.568Z,10.15
2022-12-22T11:36:28.194Z,10.17
2022-12-22T11:37:28.217Z,10.14
2022-12-22T11:38:28.162Z,10.14
2022-12-22T11:39:28.157Z,10.18
2022-12-22T11:40:28.167Z,10.21
2022-12-22T11:41:28.163Z,10.21
2022-12-22T11:42:28.106Z,10.24
2022-12-22T11:43:28.116Z,10.30
2022-12-22T11:44:28.104Z,10.36
2022-12-22T11:45:28.114Z,10.44
2022-12-22T11:46:28.214Z,10.52
2022-12-22T11:47:28.094Z,10.65
2022-12-22T11:48:28.063Z,10.73
2022-12-22T11:49:28.067Z,10.66
2022-12-22T11:51:01.787Z,10.70
2022-12-22T11:51:29.030Z,10.74
2022-12-22T11:52:28.017Z,10.76
2022-12-22T11:53:28.015Z,10.80
2022-12-22T11:54:27.999Z,10.78
2022-12-22T11:55:27.969Z,10.77
2022-12-22T11:56:27.974Z,10.74
2022-12-22T11:57:28.012Z,10.78
2022-12-22T11:58:27.996Z,10.83
2022-12-22T11:59:27.949Z,10.88
2022-12-22T12:00:48.944Z,10.94
2022-12-22T12:01:28.953Z,10.96
2022-12-22T12:02:27.926Z,10.99
2022-12-22T12:03:28.067Z,10.98
2022-12-22T12:04:28.138Z,11.03
2022-12-22T12:05:27.852Z,11.14
2022-12-22T12:06:27.842Z,11.17
2022-12-22T12:07:27.855Z,11.19
2022-12-22T12:08:27.830Z,11.14
2022-12-22T12:09:27.851Z,11.16
2022-12-22T12:10:27.822Z,11.24
2022-12-22T12:11:27.774Z,11.31
2022-12-22T12:12:27.780Z,11.32
2022-12-22T12:13:34.738Z,11.32
2022-12-22T12:14:28.739Z,11.38
2022-12-22T12:15:27.759Z,11.38
2022-12-22T12:16:27.810Z,11.28
2022-12-22T12:17:27.731Z,11.36
2022-12-22T12:18:27.720Z,11.36
2022-12-22T12:19:28.555Z,11.38
2022-12-22T12:20:27.652Z,11.38
2022-12-22T12:21:27.693Z,11.34
2022-12-22T12:22:27.637Z,11.34
2022-12-22T12:23:27.640Z,11.38
2022-12-22T12:24:27.818Z,11.41
2022-12-22T12:25:27.607Z,11.52
2022-12-22T12:26:27.599Z,11.54
2022-12-22T12:27:27.593Z,11.61
2022-12-22T12:28:27.595Z,11.61
2022-12-22T12:29:27.803Z,11.64
2022-12-22T12:30:38.177Z,11.53
2022-12-22T12:31:28.965Z,11.44
2022-12-22T12:32:27.545Z,11.35
2022-12-22T12:33:27.536Z,11.29
2022-12-22T12:34:27.492Z,11.34
2022-12-22T12:35:27.498Z,11.29
2022-12-22T12:36:28.137Z,11.24
2022-12-22T12:37:27.554Z,11.11
2022-12-22T12:39:05.842Z,11.01
2022-12-22T12:39:28.487Z,10.98
2022-12-22T12:40:27.455Z,10.99
2022-12-22T12:41:27.452Z,11.01
2022-12-22T12:42:27.726Z,11.07
2022-12-22T12:43:27.435Z,11.10
2022-12-22T12:44:27.412Z,11.02
2022-12-22T12:45:27.371Z,10.92
2022-12-22T12:46:27.424Z,10.83
2022-12-22T12:47:27.360Z,10.77
2022-12-22T12:48:27.567Z,10.70
2022-12-22T12:49:27.370Z,10.68
2022-12-22T12:50:27.398Z,10.68
2022-12-22T12:51:27.302Z,10.71
2022-12-22T12:52:27.288Z,10.66